Fortune Amaryllis — VRDT3 — position and weather

sailwx.info

Track history (hours):
 
Tides and Currents Weather Stations Pressure Air Temp Water Temp Dewpoint Dewpoint Depression Visibility Wind Speed Wind Dir Waves Ship Positions

Fortune Amaryllis

Last reported at 2017-Apr-11 10:04 UTC. Time now 2017-Apr-28 08:18 UTC.
Position N 46°08' W 125°27'.
Warning: this ship's position is 16 days out of date.

Length 175 m; draft 10.1 m.

Type: Cargo ship. MMSI: 477046800.

Date/timePositionNaut miles runAvg speedWind from/ knotsBaromVisibWave heightAir tempDewpointWater temp
2017-Apr-11 10:04N 46°08' W 125°27'1 9.9
2017-Apr-11 10:00N 46°09' W 125°26'5 9.4
2017-Apr-11 09:30N 46°09' W 125°19'4 8.8
2017-Apr-11 09:00N 46°09' W 125°13'4 8.8
2017-Apr-11 08:30N 46°10' W 125°06'4 8.5
2017-Apr-11 08:01N 46°10' W 125°00'4 8.1
2017-Apr-11 07:30N 46°11' W 124°55'4 8.4
2017-Apr-11 07:01N 46°11' W 124°49'4 8.9
2017-Apr-11 06:30N 46°12' W 124°42'4 8.8
2017-Apr-11 06:00N 46°12' W 124°36'4 8.6
2017-Apr-11 05:30N 46°12' W 124°30'4 8.2
2017-Apr-11 05:00N 46°13' W 124°24'4 8.2
2017-Apr-11 04:30N 46°13' W 124°18'4 8.5
2017-Apr-11 04:01N 46°13' W 124°12'3 6.9
2017-Apr-11 03:31N 46°14' W 124°07'5 9.2
2017-Apr-11 03:00N 46°15' W 124°00'612.2
2017-Apr-11 02:30N 46°12' W 123°53'5 9.7
2017-Apr-11 02:00N 46°13' W 123°46'713.1
2017-Apr-11 01:30N 46°16' W 123°37'713.1
2017-Apr-11 01:00N 46°16' W 123°28'612.2
2017-Apr-11 00:30N 46°10' W 123°25'611.6
2017-Apr-11 00:00N 46°09' W 123°17'713.1
2017-Apr-10 23:30N 46°11' W 123°08'612.7
2017-Apr-10 23:00N 46°08' W 123°00'3 5.6
2017-Apr-10 22:30N 46°06' W 122°57'0 0.0
2017-Apr-10 21:59N 46°06' W 122°57'0 0.0
2017-Apr-10 21:29N 46°06' W 122°57'0 0.0
2017-Apr-10 20:59N 46°06' W 122°57'0 0.0
2017-Apr-10 20:29N 46°06' W 122°57'0 0.0
2017-Apr-10 19:59N 46°06' W 122°57'0 0.0
2017-Apr-10 19:29N 46°06' W 122°57'0 0.0
2017-Apr-10 18:59N 46°06' W 122°57'0 0.0
2017-Apr-10 18:26N 46°06' W 122°57'0 0.0
2017-Apr-10 17:59N 46°06' W 122°57'0 0.0
2017-Apr-10 17:29N 46°06' W 122°57'0 0.0
2017-Apr-10 16:59N 46°06' W 122°57'0 0.0
2017-Apr-10 16:29N 46°06' W 122°57'0 0.0
2017-Apr-10 15:59N 46°06' W 122°57'0 0.0
2017-Apr-10 15:29N 46°06' W 122°57'0 0.0
2017-Apr-10 14:59N 46°06' W 122°57'0 0.0
2017-Apr-10 13:59N 46°06' W 122°57'0 0.0
2017-Apr-10 13:29N 46°06' W 122°57'0 0.0
2017-Apr-10 12:59N 46°06' W 122°57'0 0.0
2017-Apr-10 12:29N 46°06' W 122°57'0 0.0
2017-Apr-10 11:59N 46°06' W 122°57'0 0.0
2017-Apr-10 11:29N 46°06' W 122°57'0 0.0
2017-Apr-10 10:59N 46°06' W 122°57'0 0.0
2017-Apr-10 10:29N 46°06' W 122°57'0 0.0
2017-Apr-10 09:59N 46°06' W 122°57'0 0.0
2017-Apr-10 09:29N 46°06' W 122°57'0 0.0
2017-Apr-10 08:59N 46°06' W 122°57'0 0.0
2017-Apr-10 08:29N 46°06' W 122°57'0 0.0
2017-Apr-10 07:59N 46°06' W 122°57'0 0.0
2017-Apr-10 07:29N 46°06' W 122°57'0 0.0
2017-Apr-10 06:59N 46°06' W 122°57'0 0.0
2017-Apr-10 06:29N 46°06' W 122°57'0 0.0
2017-Apr-10 05:56N 46°06' W 122°57'0 0.0
2017-Apr-10 05:29N 46°06' W 122°57'0 0.0
2017-Apr-10 04:59N 46°06' W 122°57'0 0.0
2017-Apr-10 04:26N 46°06' W 122°57'0 0.0
2017-Apr-10 03:59N 46°06' W 122°57'0 0.0
2017-Apr-10 03:29N 46°06' W 122°57'0 0.0
2017-Apr-10 02:59N 46°06' W 122°57'0 0.0
2017-Apr-10 02:29N 46°06' W 122°57'0 0.0
2017-Apr-10 01:59N 46°06' W 122°57'0 0.0
2017-Apr-10 01:29N 46°06' W 122°57'0 0.0
2017-Apr-10 00:59N 46°06' W 122°57'0 0.1
2017-Apr-10 00:29N 46°06' W 122°57'0 0.0
2017-Apr-09 23:59N 46°06' W 122°57'0 0.0
2017-Apr-09 23:29N 46°06' W 122°57'0 0.0
2017-Apr-09 22:59N 46°06' W 122°57'0 0.0
2017-Apr-09 22:29N 46°06' W 122°57'0 0.0
2017-Apr-09 21:59N 46°06' W 122°57'0 0.0
2017-Apr-09 21:29N 46°06' W 122°57'0 0.0
2017-Apr-09 20:59N 46°06' W 122°57'0 0.0
2017-Apr-09 20:29N 46°06' W 122°57'0 0.0
2017-Apr-09 19:59N 46°06' W 122°57'0 0.0
2017-Apr-09 19:29N 46°06' W 122°57'0 0.0
2017-Apr-09 18:59N 46°06' W 122°57'0 0.0
2017-Apr-09 18:29N 46°06' W 122°57'0 0.0
2017-Apr-09 17:59N 46°06' W 122°57'0 0.0
2017-Apr-09 17:29N 46°06' W 122°57'0 0.0
2017-Apr-09 16:59N 46°06' W 122°57'0 0.0
2017-Apr-09 16:29N 46°06' W 122°57'0 0.0
2017-Apr-09 15:59N 46°06' W 122°57'0 0.0
2017-Apr-09 15:29N 46°06' W 122°57'0 0.0
2017-Apr-09 14:59N 46°06' W 122°57'0 0.0
2017-Apr-09 13:59N 46°06' W 122°57'0 0.0
2017-Apr-09 13:29N 46°06' W 122°57'0 0.0
2017-Apr-09 12:59N 46°06' W 122°57'0 0.0
2017-Apr-09 12:29N 46°06' W 122°57'0 0.0
2017-Apr-09 11:59N 46°06' W 122°57'0 0.0
2017-Apr-09 11:29N 46°06' W 122°57'0 0.0
2017-Apr-09 10:59N 46°06' W 122°57'0 0.0
2017-Apr-09 10:26N 46°06' W 122°57'0 0.0
2017-Apr-09 09:56N 46°06' W 122°57'0 0.0
2017-Apr-09 09:29N 46°06' W 122°57'0 0.0
2017-Apr-09 08:59N 46°06' W 122°57'0 0.0
2017-Apr-09 08:29N 46°06' W 122°57'0 0.0
2017-Apr-09 07:59N 46°06' W 122°57'0 0.0
2017-Apr-09 07:29N 46°06' W 122°57'0 0.0
2017-Apr-09 06:59N 46°06' W 122°57'0 0.0
2017-Apr-09 06:29N 46°06' W 122°57'0 0.0
2017-Apr-09 05:56N 46°06' W 122°57'0 0.0
2017-Apr-09 05:29N 46°06' W 122°57'0 0.0
2017-Apr-09 04:59N 46°06' W 122°57'0 0.0
2017-Apr-09 04:29N 46°06' W 122°57'0 0.0
2017-Apr-09 03:59N 46°06' W 122°57'0 0.0
2017-Apr-09 03:29N 46°06' W 122°57'0 0.0
2017-Apr-09 02:59N 46°06' W 122°57'0 0.0
2017-Apr-09 02:29N 46°06' W 122°57'0 0.0
2017-Apr-09 01:59N 46°06' W 122°57'0 0.0
2017-Apr-09 01:29N 46°06' W 122°57'0 0.0
2017-Apr-09 00:59N 46°06' W 122°57'0 0.0
2017-Apr-09 00:29N 46°06' W 122°57'0 0.0
2017-Apr-08 23:56N 46°06' W 122°57'0 0.0
2017-Apr-08 23:29N 46°06' W 122°57'0 0.0
2017-Apr-08 22:59N 46°06' W 122°57'0 0.0
2017-Apr-08 22:29N 46°06' W 122°57'0 0.0
2017-Apr-08 21:59N 46°06' W 122°57'0 0.0
2017-Apr-08 21:29N 46°06' W 122°57'0 0.0
2017-Apr-08 20:59N 46°06' W 122°57'0 0.0
2017-Apr-08 20:30N 46°06' W 122°57'3 6.0
2017-Apr-08 20:00N 46°08' W 123°01'5 9.4
2017-Apr-08 19:30N 46°11' W 123°06'5 9.1
2017-Apr-08 19:00N 46°10' W 123°13'5 9.6
2017-Apr-08 18:30N 46°09' W 123°19'4 8.9
2017-Apr-08 18:00N 46°10' W 123°25'5 9.6
2017-Apr-08 17:30N 46°15' W 123°27'5 9.5
2017-Apr-08 17:00N 46°15' W 123°33'611.0
2017-Apr-08 16:30N 46°15' W 123°41'611.5
2017-Apr-08 16:01N 46°12' W 123°49'5 9.8
2017-Apr-08 15:30N 46°12' W 123°56'611.3
2017-Apr-08 15:01N 46°16' W 124°02'10 9.8
2017-Apr-08 14:01N 46°12' W 124°15'4 8.4
2017-Apr-08 13:31N 46°12' W 124°21'3 5.0
2017-Apr-08 13:00N 46°14' W 124°24'1 1.9
2017-Apr-08 12:30N 46°14' W 124°26'1 2.5
2017-Apr-08 12:00N 46°13' W 124°27'3 5.5
2017-Apr-08 11:30N 46°14' W 124°31'1 1.0
2017-Apr-08 11:00N 46°14' W 124°32'1 2.8
2017-Apr-08 10:30N 46°14' W 124°30'1 2.1
2017-Apr-08 10:00N 46°15' W 124°29'1 2.8
2017-Apr-08 09:30N 46°16' W 124°29'2 3.0
2017-Apr-08 09:00N 46°18' W 124°29'1 2.9
2017-Apr-08 08:30N 46°19' W 124°30'3 5.2
2017-Apr-08 08:00N 46°22' W 124°30'3 5.4
2017-Apr-08 07:30N 46°25' W 124°30'2 4.4
2017-Apr-08 07:00N 46°27' W 124°30'2 4.8
2017-Apr-08 06:30N 46°29' W 124°31'3 6.9
2017-Apr-08 06:00N 46°32' W 124°34'2 4.9
2017-Apr-08 05:30N 46°34' W 124°34'2 4.4
2017-Apr-08 05:00N 46°36' W 124°32'1 1.4
2017-Apr-08 04:31N 46°36' W 124°31'1 1.8
2017-Apr-08 04:00N 46°37' W 124°30'2 4.4
2017-Apr-08 03:31N 46°39' W 124°28'1 2.9
2017-Apr-08 03:00N 46°40' W 124°30'1 1.8
2017-Apr-08 02:30N 46°40' W 124°31'1 1.9
2017-Apr-08 02:00N 46°40' W 124°30'1 2.1
2017-Apr-08 01:30N 46°39' W 124°29'2 3.2
2017-Apr-08 01:00N 46°38' W 124°28'1 3.0
2017-Apr-08 00:30N 46°36' W 124°28'2 3.1
2017-Apr-08 00:00N 46°35' W 124°29'2 3.1
2017-Apr-07 23:30N 46°33' W 124°29'1 3.0
2017-Apr-07 23:01N 46°33' W 124°27'2 3.5
2017-Apr-07 22:30N 46°31' W 124°27'2 3.6
2017-Apr-07 22:00N 46°29' W 124°28'2 3.7
2017-Apr-07 21:30N 46°27' W 124°28'2 3.9
2017-Apr-07 21:01N 46°25' W 124°29'2 4.1
2017-Apr-07 20:31N 46°23' W 124°28'2 4.2
2017-Apr-07 20:00N 46°21' W 124°27'2 4.1
2017-Apr-07 19:31N 46°19' W 124°27'2 3.9
2017-Apr-07 19:00N 46°17' W 124°27'2 3.8
2017-Apr-07 18:30N 46°15' W 124°27'2 3.9
2017-Apr-07 18:00N 46°13' W 124°27'2 3.9
2017-Apr-07 17:30N 46°12' W 124°27'2 3.8
2017-Apr-07 17:01N 46°10' W 124°27'2 3.6
2017-Apr-07 16:30N 46°08' W 124°27'3 5.3
2017-Apr-07 16:00N 46°05' W 124°26'2 4.1
2017-Apr-07 15:28N 46°03' W 124°28'2 3.3
2017-Apr-07 14:58N 46°02' W 124°29'4 3.7
2017-Apr-07 13:52N 45°58' W 124°31'1 3.0
2017-Apr-07 13:30N 45°57' W 124°32'2 3.4
2017-Apr-07 13:00N 45°55' W 124°33'611.2
2017-Apr-07 12:30N 45°50' W 124°36'612.3
2017-Apr-07 12:00N 45°44' W 124°39'612.0
2017-Apr-07 11:30N 45°39' W 124°41'612.1
2017-Apr-07 11:00N 45°33' W 124°44'713.0
2017-Apr-07 10:29N 45°27' W 124°48'39311.8
2017-Apr-06 01:09N 38°54' W 124°57'212.2
2017-Apr-06 01:00N 38°52' W 124°56'612.3
2017-Apr-06 00:30N 38°46' W 124°53'1211.9
2017-Apr-05 23:28N 38°35' W 124°45'511.8
2017-Apr-05 23:00N 38°31' W 124°42'612.3
2017-Apr-05 22:30N 38°25' W 124°38'612.0
2017-Apr-05 22:00N 38°20' W 124°34'612.0
2017-Apr-05 21:30N 38°15' W 124°31'612.1
2017-Apr-05 21:00N 38°10' W 124°27'612.0
2017-Apr-05 20:30N 38°04' W 124°23'612.3
2017-Apr-05 20:00N 37°59' W 124°19'612.5
2017-Apr-05 19:30N 37°54' W 124°15'612.5
2017-Apr-05 19:00N 37°48' W 124°12'612.7
2017-Apr-05 18:30N 37°43' W 124°08'612.8
2017-Apr-05 18:00N 37°37' W 124°04'612.4
2017-Apr-05 17:30N 37°32' W 123°60'612.3
2017-Apr-05 17:00N 37°26' W 123°56'612.7
2017-Apr-05 16:30N 37°21' W 123°53'612.9
2017-Apr-05 16:00N 37°15' W 123°48'612.5
2017-Apr-05 15:30N 37°10' W 123°44'612.3
2017-Apr-05 15:00N 37°04' W 123°41'1212.5
2017-Apr-05 14:00N 36°53' W 123°34'612.6
2017-Apr-05 13:30N 36°47' W 123°30'612.7
2017-Apr-05 13:00N 36°42' W 123°26'612.7
2017-Apr-05 12:30N 36°37' W 123°22'612.4
2017-Apr-05 12:00N 36°31' W 123°18'612.3
2017-Apr-05 11:30N 36°26' W 123°14'612.3
2017-Apr-05 11:00N 36°21' W 123°10'612.3
2017-Apr-05 10:30N 36°15' W 123°07'612.4
2017-Apr-05 10:00N 36°10' W 123°03'612.4
2017-Apr-05 09:30N 36°04' W 122°60'612.3
2017-Apr-05 09:00N 35°59' W 122°56'612.0
2017-Apr-05 08:30N 35°54' W 122°52'612.1
2017-Apr-05 08:00N 35°48' W 122°48'611.8
2017-Apr-05 07:30N 35°43' W 122°45'611.8
2017-Apr-05 07:00N 35°38' W 122°41'611.7
2017-Apr-05 06:30N 35°33' W 122°38'612.0
2017-Apr-05 06:00N 35°28' W 122°34'612.2
2017-Apr-05 05:30N 35°23' W 122°30'612.2
2017-Apr-05 05:00N 35°17' W 122°27'611.8
2017-Apr-05 04:30N 35°12' W 122°23'611.9
2017-Apr-05 04:00N 35°07' W 122°19'611.8
2017-Apr-05 03:30N 35°04' W 122°13'612.0
2017-Apr-05 03:00N 35°01' W 122°06'612.1
2017-Apr-05 02:30N 34°58' W 121°60'612.2
2017-Apr-05 02:00N 34°55' W 121°54'612.3
2017-Apr-05 01:30N 34°52' W 121°47'612.3
2017-Apr-05 01:00N 34°49' W 121°41'612.4
2017-Apr-05 00:30N 34°46' W 121°34'612.4
2017-Apr-05 00:00N 34°43' W 121°27'612.0
2017-Apr-04 23:30N 34°40' W 121°21'612.2
2017-Apr-04 23:00N 34°37' W 121°15'612.4
2017-Apr-04 22:30N 34°34' W 121°08'612.2
2017-Apr-04 22:00N 34°31' W 121°02'612.0
2017-Apr-04 21:30N 34°28' W 120°55'611.9
2017-Apr-04 21:00N 34°25' W 120°49'612.0
2017-Apr-04 20:30N 34°24' W 120°42'611.8
2017-Apr-04 20:00N 34°22' W 120°35'612.5
2017-Apr-04 19:30N 34°21' W 120°28'612.4
2017-Apr-04 19:00N 34°19' W 120°20'612.8
2017-Apr-04 18:31N 34°18' W 120°13'612.3
2017-Apr-04 18:00N 34°16' W 120°06'611.3
2017-Apr-04 17:30N 34°14' W 119°59'611.1
2017-Apr-04 17:00N 34°13' W 119°52'611.3
2017-Apr-04 16:30N 34°11' W 119°46'611.2
2017-Apr-04 16:00N 34°10' W 119°39'611.6
2017-Apr-04 15:30N 34°09' W 119°33'611.4
2017-Apr-04 14:57N 34°07' W 119°25'611.5
2017-Apr-04 14:28N 34°05' W 119°19'1111.4
2017-Apr-04 13:30N 34°00' W 119°07'611.7
2017-Apr-04 12:59N 33°57' W 119°01'611.8
2017-Apr-04 12:30N 33°55' W 118°55'612.0
2017-Apr-04 12:00N 33°52' W 118°48'612.0
2017-Apr-04 11:30N 33°49' W 118°42'611.9
2017-Apr-04 11:00N 33°46' W 118°36'611.9
2017-Apr-04 10:30N 33°43' W 118°30'611.5
2017-Apr-04 10:00N 33°40' W 118°24'611.3
2017-Apr-04 09:30N 33°38' W 118°17'510.9
2017-Apr-04 09:00N 33°41' W 118°12'3 5.9
2017-Apr-04 08:30N 33°44' W 118°12'1 0.0
2017-Apr-03 16:18N 33°45' W 118°12'0 0.0
2017-Apr-03 15:48N 33°45' W 118°12'0 0.0
2017-Apr-03 13:51N 33°45' W 118°12'0 0.0
2017-Apr-03 11:51N 33°45' W 118°12'0 0.0
2017-Apr-03 10:36N 33°45' W 118°12'0 0.0
2017-Apr-03 10:15N 33°45' W 118°12'0 0.0
2017-Apr-03 09:57N 33°45' W 118°12'0 0.0
2017-Apr-03 09:27N 33°45' W 118°12'0 0.0
2017-Apr-03 09:00N 33°45' W 118°12'0 0.0
2017-Apr-03 08:30N 33°45' W 118°12'0 0.0
2017-Apr-03 07:48N 33°45' W 118°12'0 0.0
2017-Apr-03 07:30N 33°45' W 118°12'0 0.0
2017-Apr-03 07:00N 33°45' W 118°12'0 0.0
2017-Apr-03 06:30N 33°45' W 118°12'0 0.0
2017-Apr-03 06:00N 33°45' W 118°12'0 0.0
2017-Apr-03 05:27N 33°45' W 118°12'0 0.0
2017-Apr-03 04:57N 33°45' W 118°12'0 0.0
2017-Apr-03 04:30N 33°45' W 118°12'0 0.0
2017-Apr-03 04:00N 33°45' W 118°12'0 0.0
2017-Apr-03 03:30N 33°45' W 118°12'0 0.0
2017-Apr-03 03:00N 33°45' W 118°12'0 0.0
2017-Apr-03 02:30N 33°45' W 118°12'0 0.0
2017-Apr-03 02:00N 33°45' W 118°12'0 0.0
2017-Apr-03 01:27N 33°45' W 118°12'0 0.0
2017-Apr-03 00:57N 33°45' W 118°12'0 0.0
2017-Apr-03 00:15N 33°45' W 118°12'0 0.0
2017-Apr-02 23:57N 33°45' W 118°12'0 0.0
2017-Apr-02 23:30N 33°45' W 118°12'0 0.0
2017-Apr-02 22:57N 33°45' W 118°12'1 1.4
2017-Apr-02 22:30N 33°44' W 118°13'1 1.4
2017-Apr-02 22:00N 33°44' W 118°13'0 0.1
2017-Apr-02 21:30N 33°44' W 118°14'0 0.0
2017-Apr-02 21:00N 33°44' W 118°14'0 0.0
2017-Apr-02 20:30N 33°44' W 118°14'0 0.0
2017-Apr-02 20:00N 33°44' W 118°14'0 0.0
2017-Apr-02 19:30N 33°44' W 118°14'0 0.0
2017-Apr-02 19:00N 33°44' W 118°14'0 0.1
2017-Apr-02 18:30N 33°44' W 118°14'0 0.0
2017-Apr-02 17:57N 33°44' W 118°14'0 0.0
2017-Apr-02 17:27N 33°44' W 118°14'0 0.0
2017-Apr-02 17:00N 33°44' W 118°14'0 0.0
2017-Apr-02 16:27N 33°44' W 118°14'0 0.0
2017-Apr-02 15:57N 33°44' W 118°14'0 0.1
2017-Apr-02 15:27N 33°44' W 118°14'0 0.0
2017-Apr-02 15:00N 33°44' W 118°14'0 0.0
2017-Apr-02 13:57N 33°44' W 118°14'0 0.0
2017-Apr-02 13:30N 33°44' W 118°14'0 0.1
2017-Apr-02 12:57N 33°44' W 118°14'0 0.1
2017-Apr-02 12:30N 33°44' W 118°14'0 0.0
2017-Apr-02 12:00N 33°44' W 118°14'0 0.0
2017-Apr-02 11:30N 33°44' W 118°14'0 0.0
2017-Apr-02 11:00N 33°44' W 118°14'0 0.0
2017-Apr-02 10:27N 33°44' W 118°14'0 0.0
2017-Apr-02 10:00N 33°44' W 118°14'0 0.0
2017-Apr-02 09:30N 33°44' W 118°14'0 0.0
2017-Apr-02 09:00N 33°44' W 118°14'0 0.0
2017-Apr-02 08:30N 33°44' W 118°14'0 0.0
2017-Apr-02 08:00N 33°44' W 118°14'0 0.1
2017-Apr-02 07:30N 33°44' W 118°14'0 0.1
2017-Apr-02 07:00N 33°44' W 118°14'0 0.1
2017-Apr-02 06:30N 33°44' W 118°14'0 0.1
2017-Apr-02 06:00N 33°44' W 118°14'0 0.1
2017-Apr-02 05:30N 33°44' W 118°14'0 0.2
2017-Apr-02 05:00N 33°44' W 118°14'0 0.1
2017-Apr-02 04:30N 33°44' W 118°13'0 0.1
2017-Apr-02 04:00N 33°44' W 118°13'0 0.0
2017-Apr-02 03:27N 33°44' W 118°13'0 0.0
2017-Apr-02 03:00N 33°44' W 118°13'0 0.2
2017-Apr-02 02:30N 33°44' W 118°13'0 0.1
2017-Apr-02 02:00N 33°44' W 118°13'0 0.0
2017-Apr-02 01:30N 33°44' W 118°13'0 0.0
2017-Apr-02 01:00N 33°44' W 118°13'0 0.1
2017-Apr-02 00:30N 33°44' W 118°13'0 0.0
2017-Apr-02 00:00N 33°44' W 118°13'0 0.1
2017-Apr-01 23:30N 33°44' W 118°13'0 0.0
2017-Apr-01 22:51N 33°44' W 118°13'0 0.0
2017-Apr-01 22:30N 33°44' W 118°13'0 0.0
2017-Apr-01 22:00N 33°44' W 118°13'0 0.0
2017-Apr-01 21:30N 33°44' W 118°13'0 0.1
2017-Apr-01 20:54N 33°44' W 118°13'0 0.0
2017-Apr-01 20:27N 33°44' W 118°13'0 0.1
2017-Apr-01 20:00N 33°44' W 118°14'0 0.0
2017-Apr-01 19:30N 33°44' W 118°14'0 0.0
2017-Apr-01 19:00N 33°44' W 118°14'0 0.0
2017-Apr-01 18:30N 33°44' W 118°14'0 0.0
2017-Apr-01 17:30N 33°44' W 118°14'0 0.0
2017-Apr-01 17:00N 33°44' W 118°14'0 0.0
2017-Apr-01 16:27N 33°44' W 118°14'0 0.0
2017-Apr-01 15:57N 33°44' W 118°14'0 0.2
2017-Apr-01 15:24N 33°44' W 118°14'0 0.2
2017-Apr-01 15:00N 33°44' W 118°14'0 0.1
2017-Apr-01 14:00N 33°44' W 118°14'0 0.2
2017-Apr-01 13:30N 33°44' W 118°13'0 0.0
2017-Apr-01 13:00N 33°44' W 118°13'0 0.0
2017-Apr-01 12:21N 33°44' W 118°13'0 0.1
2017-Apr-01 12:00N 33°44' W 118°13'0 0.1
2017-Apr-01 11:30N 33°44' W 118°14'0 0.0
2017-Apr-01 11:00N 33°44' W 118°14'0 0.1
2017-Apr-01 10:30N 33°44' W 118°14'  
Track history (hours):
 
Tides and Currents Weather Stations Pressure Air Temp Water Temp Dewpoint Dewpoint Depression Visibility Wind Speed Wind Dir Waves Ship Positions

Fortune Amaryllis

Last reported at 2017-Apr-11 10:04 UTC. Time now 2017-Apr-28 08:18 UTC.
Position N 46°08' W 125°27'.
Warning: this ship's position is 16 days out of date.

Length 175 m; draft 10.1 m.

Type: Cargo ship. MMSI: 477046800.

Date/timePositionNaut miles runAvg speedWind from/ knotsBaromVisibWave heightAir tempDewpointWater temp
2017-Apr-11 10:04N 46°08' W 125°27'1 9.9
2017-Apr-11 10:00N 46°09' W 125°26'5 9.4
2017-Apr-11 09:30N 46°09' W 125°19'4 8.8
2017-Apr-11 09:00N 46°09' W 125°13'4 8.8
2017-Apr-11 08:30N 46°10' W 125°06'4 8.5
2017-Apr-11 08:01N 46°10' W 125°00'4 8.1
2017-Apr-11 07:30N 46°11' W 124°55'4 8.4
2017-Apr-11 07:01N 46°11' W 124°49'4 8.9
2017-Apr-11 06:30N 46°12' W 124°42'4 8.8
2017-Apr-11 06:00N 46°12' W 124°36'4 8.6
2017-Apr-11 05:30N 46°12' W 124°30'4 8.2
2017-Apr-11 05:00N 46°13' W 124°24'4 8.2
2017-Apr-11 04:30N 46°13' W 124°18'4 8.5
2017-Apr-11 04:01N 46°13' W 124°12'3 6.9
2017-Apr-11 03:31N 46°14' W 124°07'5 9.2
2017-Apr-11 03:00N 46°15' W 124°00'612.2
2017-Apr-11 02:30N 46°12' W 123°53'5 9.7
2017-Apr-11 02:00N 46°13' W 123°46'713.1
2017-Apr-11 01:30N 46°16' W 123°37'713.1
2017-Apr-11 01:00N 46°16' W 123°28'612.2
2017-Apr-11 00:30N 46°10' W 123°25'611.6
2017-Apr-11 00:00N 46°09' W 123°17'713.1
2017-Apr-10 23:30N 46°11' W 123°08'612.7
2017-Apr-10 23:00N 46°08' W 123°00'3 5.6
2017-Apr-10 22:30N 46°06' W 122°57'0 0.0
2017-Apr-10 21:59N 46°06' W 122°57'0 0.0
2017-Apr-10 21:29N 46°06' W 122°57'0 0.0
2017-Apr-10 20:59N 46°06' W 122°57'0 0.0
2017-Apr-10 20:29N 46°06' W 122°57'0 0.0
2017-Apr-10 19:59N 46°06' W 122°57'0 0.0
2017-Apr-10 19:29N 46°06' W 122°57'0 0.0
2017-Apr-10 18:59N 46°06' W 122°57'0 0.0
2017-Apr-10 18:26N 46°06' W 122°57'0 0.0
2017-Apr-10 17:59N 46°06' W 122°57'0 0.0
2017-Apr-10 17:29N 46°06' W 122°57'0 0.0
2017-Apr-10 16:59N 46°06' W 122°57'0 0.0
2017-Apr-10 16:29N 46°06' W 122°57'0 0.0
2017-Apr-10 15:59N 46°06' W 122°57'0 0.0
2017-Apr-10 15:29N 46°06' W 122°57'0 0.0
2017-Apr-10 14:59N 46°06' W 122°57'0 0.0
2017-Apr-10 13:59N 46°06' W 122°57'0 0.0
2017-Apr-10 13:29N 46°06' W 122°57'0 0.0
2017-Apr-10 12:59N 46°06' W 122°57'0 0.0
2017-Apr-10 12:29N 46°06' W 122°57'0 0.0
2017-Apr-10 11:59N 46°06' W 122°57'0 0.0
2017-Apr-10 11:29N 46°06' W 122°57'0 0.0
2017-Apr-10 10:59N 46°06' W 122°57'0 0.0
2017-Apr-10 10:29N 46°06' W 122°57'0 0.0
2017-Apr-10 09:59N 46°06' W 122°57'0 0.0
2017-Apr-10 09:29N 46°06' W 122°57'0 0.0
2017-Apr-10 08:59N 46°06' W 122°57'0 0.0
2017-Apr-10 08:29N 46°06' W 122°57'0 0.0
2017-Apr-10 07:59N 46°06' W 122°57'0 0.0
2017-Apr-10 07:29N 46°06' W 122°57'0 0.0
2017-Apr-10 06:59N 46°06' W 122°57'0 0.0
2017-Apr-10 06:29N 46°06' W 122°57'0 0.0
2017-Apr-10 05:56N 46°06' W 122°57'0 0.0
2017-Apr-10 05:29N 46°06' W 122°57'0 0.0
2017-Apr-10 04:59N 46°06' W 122°57'0 0.0
2017-Apr-10 04:26N 46°06' W 122°57'0 0.0
2017-Apr-10 03:59N 46°06' W 122°57'0 0.0
2017-Apr-10 03:29N 46°06' W 122°57'0 0.0
2017-Apr-10 02:59N 46°06' W 122°57'0 0.0
2017-Apr-10 02:29N 46°06' W 122°57'0 0.0
2017-Apr-10 01:59N 46°06' W 122°57'0 0.0
2017-Apr-10 01:29N 46°06' W 122°57'0 0.0
2017-Apr-10 00:59N 46°06' W 122°57'0 0.1
2017-Apr-10 00:29N 46°06' W 122°57'0 0.0
2017-Apr-09 23:59N 46°06' W 122°57'0 0.0
2017-Apr-09 23:29N 46°06' W 122°57'0 0.0
2017-Apr-09 22:59N 46°06' W 122°57'0 0.0
2017-Apr-09 22:29N 46°06' W 122°57'0 0.0
2017-Apr-09 21:59N 46°06' W 122°57'0 0.0
2017-Apr-09 21:29N 46°06' W 122°57'0 0.0
2017-Apr-09 20:59N 46°06' W 122°57'0 0.0
2017-Apr-09 20:29N 46°06' W 122°57'0 0.0
2017-Apr-09 19:59N 46°06' W 122°57'0 0.0
2017-Apr-09 19:29N 46°06' W 122°57'0 0.0
2017-Apr-09 18:59N 46°06' W 122°57'0 0.0
2017-Apr-09 18:29N 46°06' W 122°57'0 0.0
2017-Apr-09 17:59N 46°06' W 122°57'0 0.0
2017-Apr-09 17:29N 46°06' W 122°57'0 0.0
2017-Apr-09 16:59N 46°06' W 122°57'0 0.0
2017-Apr-09 16:29N 46°06' W 122°57'0 0.0
2017-Apr-09 15:59N 46°06' W 122°57'0 0.0
2017-Apr-09 15:29N 46°06' W 122°57'0 0.0
2017-Apr-09 14:59N 46°06' W 122°57'0 0.0
2017-Apr-09 13:59N 46°06' W 122°57'0 0.0
2017-Apr-09 13:29N 46°06' W 122°57'0 0.0
2017-Apr-09 12:59N 46°06' W 122°57'0 0.0
2017-Apr-09 12:29N 46°06' W 122°57'0 0.0
2017-Apr-09 11:59N 46°06' W 122°57'0 0.0
2017-Apr-09 11:29N 46°06' W 122°57'0 0.0
2017-Apr-09 10:59N 46°06' W 122°57'0 0.0
2017-Apr-09 10:26N 46°06' W 122°57'0 0.0
2017-Apr-09 09:56N 46°06' W 122°57'0 0.0
2017-Apr-09 09:29N 46°06' W 122°57'0 0.0
2017-Apr-09 08:59N 46°06' W 122°57'0 0.0
2017-Apr-09 08:29N 46°06' W 122°57'0 0.0
2017-Apr-09 07:59N 46°06' W 122°57'0 0.0
2017-Apr-09 07:29N 46°06' W 122°57'0 0.0
2017-Apr-09 06:59N 46°06' W 122°57'0 0.0
2017-Apr-09 06:29N 46°06' W 122°57'0 0.0
2017-Apr-09 05:56N 46°06' W 122°57'0 0.0
2017-Apr-09 05:29N 46°06' W 122°57'0 0.0
2017-Apr-09 04:59N 46°06' W 122°57'0 0.0
2017-Apr-09 04:29N 46°06' W 122°57'0 0.0
2017-Apr-09 03:59N 46°06' W 122°57'0 0.0
2017-Apr-09 03:29N 46°06' W 122°57'0 0.0
2017-Apr-09 02:59N 46°06' W 122°57'0 0.0
2017-Apr-09 02:29N 46°06' W 122°57'0 0.0
2017-Apr-09 01:59N 46°06' W 122°57'0 0.0
2017-Apr-09 01:29N 46°06' W 122°57'0 0.0
2017-Apr-09 00:59N 46°06' W 122°57'0 0.0
2017-Apr-09 00:29N 46°06' W 122°57'0 0.0
2017-Apr-08 23:56N 46°06' W 122°57'0 0.0
2017-Apr-08 23:29N 46°06' W 122°57'0 0.0
2017-Apr-08 22:59N 46°06' W 122°57'0 0.0
2017-Apr-08 22:29N 46°06' W 122°57'0 0.0
2017-Apr-08 21:59N 46°06' W 122°57'0 0.0
2017-Apr-08 21:29N 46°06' W 122°57'0 0.0
2017-Apr-08 20:59N 46°06' W 122°57'0 0.0
2017-Apr-08 20:30N 46°06' W 122°57'3 6.0
2017-Apr-08 20:00N 46°08' W 123°01'5 9.4
2017-Apr-08 19:30N 46°11' W 123°06'5 9.1
2017-Apr-08 19:00N 46°10' W 123°13'5 9.6
2017-Apr-08 18:30N 46°09' W 123°19'4 8.9
2017-Apr-08 18:00N 46°10' W 123°25'5 9.6
2017-Apr-08 17:30N 46°15' W 123°27'5 9.5
2017-Apr-08 17:00N 46°15' W 123°33'611.0
2017-Apr-08 16:30N 46°15' W 123°41'611.5
2017-Apr-08 16:01N 46°12' W 123°49'5 9.8
2017-Apr-08 15:30N 46°12' W 123°56'611.3
2017-Apr-08 15:01N 46°16' W 124°02'10 9.8
2017-Apr-08 14:01N 46°12' W 124°15'4 8.4
2017-Apr-08 13:31N 46°12' W 124°21'3 5.0
2017-Apr-08 13:00N 46°14' W 124°24'1 1.9
2017-Apr-08 12:30N 46°14' W 124°26'1 2.5
2017-Apr-08 12:00N 46°13' W 124°27'3 5.5
2017-Apr-08 11:30N 46°14' W 124°31'1 1.0
2017-Apr-08 11:00N 46°14' W 124°32'1 2.8
2017-Apr-08 10:30N 46°14' W 124°30'1 2.1
2017-Apr-08 10:00N 46°15' W 124°29'1 2.8
2017-Apr-08 09:30N 46°16' W 124°29'2 3.0
2017-Apr-08 09:00N 46°18' W 124°29'1 2.9
2017-Apr-08 08:30N 46°19' W 124°30'3 5.2
2017-Apr-08 08:00N 46°22' W 124°30'3 5.4
2017-Apr-08 07:30N 46°25' W 124°30'2 4.4
2017-Apr-08 07:00N 46°27' W 124°30'2 4.8
2017-Apr-08 06:30N 46°29' W 124°31'3 6.9
2017-Apr-08 06:00N 46°32' W 124°34'2 4.9
2017-Apr-08 05:30N 46°34' W 124°34'2 4.4
2017-Apr-08 05:00N 46°36' W 124°32'1 1.4
2017-Apr-08 04:31N 46°36' W 124°31'1 1.8
2017-Apr-08 04:00N 46°37' W 124°30'2 4.4
2017-Apr-08 03:31N 46°39' W 124°28'1 2.9
2017-Apr-08 03:00N 46°40' W 124°30'1 1.8
2017-Apr-08 02:30N 46°40' W 124°31'1 1.9
2017-Apr-08 02:00N 46°40' W 124°30'1 2.1
2017-Apr-08 01:30N 46°39' W 124°29'2 3.2
2017-Apr-08 01:00N 46°38' W 124°28'1 3.0
2017-Apr-08 00:30N 46°36' W 124°28'2 3.1
2017-Apr-08 00:00N 46°35' W 124°29'2 3.1
2017-Apr-07 23:30N 46°33' W 124°29'1 3.0
2017-Apr-07 23:01N 46°33' W 124°27'2 3.5
2017-Apr-07 22:30N 46°31' W 124°27'2 3.6
2017-Apr-07 22:00N 46°29' W 124°28'2 3.7
2017-Apr-07 21:30N 46°27' W 124°28'2 3.9
2017-Apr-07 21:01N 46°25' W 124°29'2 4.1
2017-Apr-07 20:31N 46°23' W 124°28'2 4.2
2017-Apr-07 20:00N 46°21' W 124°27'2 4.1
2017-Apr-07 19:31N 46°19' W 124°27'2 3.9
2017-Apr-07 19:00N 46°17' W 124°27'2 3.8
2017-Apr-07 18:30N 46°15' W 124°27'2 3.9
2017-Apr-07 18:00N 46°13' W 124°27'2 3.9
2017-Apr-07 17:30N 46°12' W 124°27'2 3.8
2017-Apr-07 17:01N 46°10' W 124°27'2 3.6
2017-Apr-07 16:30N 46°08' W 124°27'3 5.3
2017-Apr-07 16:00N 46°05' W 124°26'2 4.1
2017-Apr-07 15:28N 46°03' W 124°28'2 3.3
2017-Apr-07 14:58N 46°02' W 124°29'4 3.7
2017-Apr-07 13:52N 45°58' W 124°31'1 3.0
2017-Apr-07 13:30N 45°57' W 124°32'2 3.4
2017-Apr-07 13:00N 45°55' W 124°33'611.2
2017-Apr-07 12:30N 45°50' W 124°36'612.3
2017-Apr-07 12:00N 45°44' W 124°39'612.0
2017-Apr-07 11:30N 45°39' W 124°41'612.1
2017-Apr-07 11:00N 45°33' W 124°44'713.0
2017-Apr-07 10:29N 45°27' W 124°48'39311.8
2017-Apr-06 01:09N 38°54' W 124°57'212.2
2017-Apr-06 01:00N 38°52' W 124°56'612.3
2017-Apr-06 00:30N 38°46' W 124°53'1211.9
2017-Apr-05 23:28N 38°35' W 124°45'511.8
2017-Apr-05 23:00N 38°31' W 124°42'612.3
2017-Apr-05 22:30N 38°25' W 124°38'612.0
2017-Apr-05 22:00N 38°20' W 124°34'612.0
2017-Apr-05 21:30N 38°15' W 124°31'612.1
2017-Apr-05 21:00N 38°10' W 124°27'612.0
2017-Apr-05 20:30N 38°04' W 124°23'612.3
2017-Apr-05 20:00N 37°59' W 124°19'612.5
2017-Apr-05 19:30N 37°54' W 124°15'612.5
2017-Apr-05 19:00N 37°48' W 124°12'612.7
2017-Apr-05 18:30N 37°43' W 124°08'612.8
2017-Apr-05 18:00N 37°37' W 124°04'612.4
2017-Apr-05 17:30N 37°32' W 123°60'612.3
2017-Apr-05 17:00N 37°26' W 123°56'612.7
2017-Apr-05 16:30N 37°21' W 123°53'612.9
2017-Apr-05 16:00N 37°15' W 123°48'612.5
2017-Apr-05 15:30N 37°10' W 123°44'612.3
2017-Apr-05 15:00N 37°04' W 123°41'1212.5
2017-Apr-05 14:00N 36°53' W 123°34'612.6
2017-Apr-05 13:30N 36°47' W 123°30'612.7
2017-Apr-05 13:00N 36°42' W 123°26'612.7
2017-Apr-05 12:30N 36°37' W 123°22'612.4
2017-Apr-05 12:00N 36°31' W 123°18'612.3
2017-Apr-05 11:30N 36°26' W 123°14'612.3
2017-Apr-05 11:00N 36°21' W 123°10'612.3
2017-Apr-05 10:30N 36°15' W 123°07'612.4
2017-Apr-05 10:00N 36°10' W 123°03'612.4
2017-Apr-05 09:30N 36°04' W 122°60'612.3
2017-Apr-05 09:00N 35°59' W 122°56'612.0
2017-Apr-05 08:30N 35°54' W 122°52'612.1
2017-Apr-05 08:00N 35°48' W 122°48'611.8
2017-Apr-05 07:30N 35°43' W 122°45'611.8
2017-Apr-05 07:00N 35°38' W 122°41'611.7
2017-Apr-05 06:30N 35°33' W 122°38'612.0
2017-Apr-05 06:00N 35°28' W 122°34'612.2
2017-Apr-05 05:30N 35°23' W 122°30'612.2
2017-Apr-05 05:00N 35°17' W 122°27'611.8
2017-Apr-05 04:30N 35°12' W 122°23'611.9
2017-Apr-05 04:00N 35°07' W 122°19'611.8
2017-Apr-05 03:30N 35°04' W 122°13'612.0
2017-Apr-05 03:00N 35°01' W 122°06'612.1
2017-Apr-05 02:30N 34°58' W 121°60'612.2
2017-Apr-05 02:00N 34°55' W 121°54'612.3
2017-Apr-05 01:30N 34°52' W 121°47'612.3
2017-Apr-05 01:00N 34°49' W 121°41'612.4
2017-Apr-05 00:30N 34°46' W 121°34'612.4
2017-Apr-05 00:00N 34°43' W 121°27'612.0
2017-Apr-04 23:30N 34°40' W 121°21'612.2
2017-Apr-04 23:00N 34°37' W 121°15'612.4
2017-Apr-04 22:30N 34°34' W 121°08'612.2
2017-Apr-04 22:00N 34°31' W 121°02'612.0
2017-Apr-04 21:30N 34°28' W 120°55'611.9
2017-Apr-04 21:00N 34°25' W 120°49'612.0
2017-Apr-04 20:30N 34°24' W 120°42'611.8
2017-Apr-04 20:00N 34°22' W 120°35'612.5
2017-Apr-04 19:30N 34°21' W 120°28'612.4
2017-Apr-04 19:00N 34°19' W 120°20'612.8
2017-Apr-04 18:31N 34°18' W 120°13'612.3
2017-Apr-04 18:00N 34°16' W 120°06'611.3
2017-Apr-04 17:30N 34°14' W 119°59'611.1
2017-Apr-04 17:00N 34°13' W 119°52'611.3
2017-Apr-04 16:30N 34°11' W 119°46'611.2
2017-Apr-04 16:00N 34°10' W 119°39'611.6
2017-Apr-04 15:30N 34°09' W 119°33'611.4
2017-Apr-04 14:57N 34°07' W 119°25'611.5
2017-Apr-04 14:28N 34°05' W 119°19'1111.4
2017-Apr-04 13:30N 34°00' W 119°07'611.7
2017-Apr-04 12:59N 33°57' W 119°01'611.8
2017-Apr-04 12:30N 33°55' W 118°55'612.0
2017-Apr-04 12:00N 33°52' W 118°48'612.0
2017-Apr-04 11:30N 33°49' W 118°42'611.9
2017-Apr-04 11:00N 33°46' W 118°36'611.9
2017-Apr-04 10:30N 33°43' W 118°30'611.5
2017-Apr-04 10:00N 33°40' W 118°24'611.3
2017-Apr-04 09:30N 33°38' W 118°17'510.9
2017-Apr-04 09:00N 33°41' W 118°12'3 5.9
2017-Apr-04 08:30N 33°44' W 118°12'1 0.0
2017-Apr-03 16:18N 33°45' W 118°12'0 0.0
2017-Apr-03 15:48N 33°45' W 118°12'0 0.0
2017-Apr-03 13:51N 33°45' W 118°12'0 0.0
2017-Apr-03 11:51N 33°45' W 118°12'0 0.0
2017-Apr-03 10:36N 33°45' W 118°12'0 0.0
2017-Apr-03 10:15N 33°45' W 118°12'0 0.0
2017-Apr-03 09:57N 33°45' W 118°12'0 0.0
2017-Apr-03 09:27N 33°45' W 118°12'0 0.0
2017-Apr-03 09:00N 33°45' W 118°12'0 0.0
2017-Apr-03 08:30N 33°45' W 118°12'0 0.0
2017-Apr-03 07:48N 33°45' W 118°12'0 0.0
2017-Apr-03 07:30N 33°45' W 118°12'0 0.0
2017-Apr-03 07:00N 33°45' W 118°12'0 0.0
2017-Apr-03 06:30N 33°45' W 118°12'0 0.0
2017-Apr-03 06:00N 33°45' W 118°12'0 0.0
2017-Apr-03 05:27N 33°45' W 118°12'0 0.0
2017-Apr-03 04:57N 33°45' W 118°12'0 0.0
2017-Apr-03 04:30N 33°45' W 118°12'0 0.0
2017-Apr-03 04:00N 33°45' W 118°12'0 0.0
2017-Apr-03 03:30N 33°45' W 118°12'0 0.0
2017-Apr-03 03:00N 33°45' W 118°12'0 0.0
2017-Apr-03 02:30N 33°45' W 118°12'0 0.0
2017-Apr-03 02:00N 33°45' W 118°12'0 0.0
2017-Apr-03 01:27N 33°45' W 118°12'0 0.0
2017-Apr-03 00:57N 33°45' W 118°12'0 0.0
2017-Apr-03 00:15N 33°45' W 118°12'0 0.0
2017-Apr-02 23:57N 33°45' W 118°12'0 0.0
2017-Apr-02 23:30N 33°45' W 118°12'0 0.0
2017-Apr-02 22:57N 33°45' W 118°12'1 1.4
2017-Apr-02 22:30N 33°44' W 118°13'1 1.4
2017-Apr-02 22:00N 33°44' W 118°13'0 0.1
2017-Apr-02 21:30N 33°44' W 118°14'0 0.0
2017-Apr-02 21:00N 33°44' W 118°14'0 0.0
2017-Apr-02 20:30N 33°44' W 118°14'0 0.0
2017-Apr-02 20:00N 33°44' W 118°14'0 0.0
2017-Apr-02 19:30N 33°44' W 118°14'0 0.0
2017-Apr-02 19:00N 33°44' W 118°14'0 0.1
2017-Apr-02 18:30N 33°44' W 118°14'0 0.0
2017-Apr-02 17:57N 33°44' W 118°14'0 0.0
2017-Apr-02 17:27N 33°44' W 118°14'0 0.0
2017-Apr-02 17:00N 33°44' W 118°14'0 0.0
2017-Apr-02 16:27N 33°44' W 118°14'0 0.0
2017-Apr-02 15:57N 33°44' W 118°14'0 0.1
2017-Apr-02 15:27N 33°44' W 118°14'0 0.0
2017-Apr-02 15:00N 33°44' W 118°14'0 0.0
2017-Apr-02 13:57N 33°44' W 118°14'0 0.0
2017-Apr-02 13:30N 33°44' W 118°14'0 0.1
2017-Apr-02 12:57N 33°44' W 118°14'0 0.1
2017-Apr-02 12:30N 33°44' W 118°14'0 0.0
2017-Apr-02 12:00N 33°44' W 118°14'0 0.0
2017-Apr-02 11:30N 33°44' W 118°14'0 0.0
2017-Apr-02 11:00N 33°44' W 118°14'0 0.0
2017-Apr-02 10:27N 33°44' W 118°14'0 0.0
2017-Apr-02 10:00N 33°44' W 118°14'0 0.0
2017-Apr-02 09:30N 33°44' W 118°14'0 0.0
2017-Apr-02 09:00N 33°44' W 118°14'0 0.0
2017-Apr-02 08:30N 33°44' W 118°14'0 0.0
2017-Apr-02 08:00N 33°44' W 118°14'0 0.1
2017-Apr-02 07:30N 33°44' W 118°14'0 0.1
2017-Apr-02 07:00N 33°44' W 118°14'0 0.1
2017-Apr-02 06:30N 33°44' W 118°14'0 0.1
2017-Apr-02 06:00N 33°44' W 118°14'0 0.1
2017-Apr-02 05:30N 33°44' W 118°14'0 0.2
2017-Apr-02 05:00N 33°44' W 118°14'0 0.1
2017-Apr-02 04:30N 33°44' W 118°13'0 0.1
2017-Apr-02 04:00N 33°44' W 118°13'0 0.0
2017-Apr-02 03:27N 33°44' W 118°13'0 0.0
2017-Apr-02 03:00N 33°44' W 118°13'0 0.2
2017-Apr-02 02:30N 33°44' W 118°13'0 0.1
2017-Apr-02 02:00N 33°44' W 118°13'0 0.0
2017-Apr-02 01:30N 33°44' W 118°13'0 0.0
2017-Apr-02 01:00N 33°44' W 118°13'0 0.1
2017-Apr-02 00:30N 33°44' W 118°13'0 0.0
2017-Apr-02 00:00N 33°44' W 118°13'0 0.1
2017-Apr-01 23:30N 33°44' W 118°13'0 0.0
2017-Apr-01 22:51N 33°44' W 118°13'0 0.0
2017-Apr-01 22:30N 33°44' W 118°13'0 0.0
2017-Apr-01 22:00N 33°44' W 118°13'0 0.0
2017-Apr-01 21:30N 33°44' W 118°13'0 0.1
2017-Apr-01 20:54N 33°44' W 118°13'0 0.0
2017-Apr-01 20:27N 33°44' W 118°13'0 0.1
2017-Apr-01 20:00N 33°44' W 118°14'0 0.0
2017-Apr-01 19:30N 33°44' W 118°14'0 0.0
2017-Apr-01 19:00N 33°44' W 118°14'0 0.0
2017-Apr-01 18:30N 33°44' W 118°14'0 0.0
2017-Apr-01 17:30N 33°44' W 118°14'0 0.0
2017-Apr-01 17:00N 33°44' W 118°14'0 0.0
2017-Apr-01 16:27N 33°44' W 118°14'0 0.0
2017-Apr-01 15:57N 33°44' W 118°14'0 0.2
2017-Apr-01 15:24N 33°44' W 118°14'0 0.2
2017-Apr-01 15:00N 33°44' W 118°14'0 0.1
2017-Apr-01 14:00N 33°44' W 118°14'0 0.2
2017-Apr-01 13:30N 33°44' W 118°13'0 0.0
2017-Apr-01 13:00N 33°44' W 118°13'0 0.0
2017-Apr-01 12:21N 33°44' W 118°13'0 0.1
2017-Apr-01 12:00N 33°44' W 118°13'0 0.1
2017-Apr-01 11:30N 33°44' W 118°14'0 0.0
2017-Apr-01 11:00N 33°44' W 118°14'0 0.1
2017-Apr-01 10:30N 33°44' W 118°14'  

Dump ship's entire track history